sensor_id;sensor_type;location;lat;lon;timestamp;pressure;altitude;pressure_sealevel;temperature;humidity
73171;BME280;61381;50.118;19.962;2023-07-08T00:01:34;99091.72;;;11.80;100.00
73171;BME280;61381;50.118;19.962;2023-07-08T00:06:37;99087.44;;;11.74;100.00
73171;BME280;61381;50.118;19.962;2023-07-08T00:11:38;99096.84;;;11.76;100.00
73171;BME280;61381;50.118;19.962;2023-07-08T00:16:38;99096.88;;;11.66;100.00
73171;BME280;61381;50.118;19.962;2023-07-08T00:21:41;99093.41;;;11.66;100.00
73171;BME280;61381;50.118;19.962;2023-07-08T00:26:42;99093.41;;;11.60;100.00
73171;BME280;61381;50.118;19.962;2023-07-08T00:31:43;99091.56;;;11.61;100.00
73171;BME280;61381;50.118;19.962;2023-07-08T00:36:45;99082.47;;;11.52;100.00
73171;BME280;61381;50.118;19.962;2023-07-08T00:41:47;99087.91;;;11.36;100.00
73171;BME280;61381;50.118;19.962;2023-07-08T00:46:57;99079.84;;;11.31;100.00
73171;BME280;61381;50.118;19.962;2023-07-08T00:52:23;99076.94;;;11.28;100.00
73171;BME280;61381;50.118;19.962;2023-07-08T00:57:26;99080.50;;;11.07;100.00
73171;BME280;61381;50.118;19.962;2023-07-08T01:02:29;99078.91;;;11.01;100.00
73171;BME280;61381;50.118;19.962;2023-07-08T01:07:34;99069.53;;;10.94;100.00
73171;BME280;61381;50.118;19.962;2023-07-08T01:12:41;99067.13;;;10.87;100.00
73171;BME280;61381;50.118;19.962;2023-07-08T01:17:44;99070.06;;;10.85;100.00
73171;BME280;61381;50.118;19.962;2023-07-08T01:22:47;99079.72;;;10.92;100.00
73171;BME280;61381;50.118;19.962;2023-07-08T01:27:52;99069.56;;;10.78;100.00
73171;BME280;61381;50.118;19.962;2023-07-08T01:32:57;99064.50;;;10.61;100.00
73171;BME280;61381;50.118;19.962;2023-07-08T01:38:03;99070.41;;;10.58;100.00
73171;BME280;61381;50.118;19.962;2023-07-08T01:43:06;99074.66;;;10.75;100.00
73171;BME280;61381;50.118;19.962;2023-07-08T01:48:09;99080.03;;;10.80;100.00
73171;BME280;61381;50.118;19.962;2023-07-08T01:53:14;99066.66;;;10.54;100.00
73171;BME280;61381;50.118;19.962;2023-07-08T01:58:16;99070.13;;;10.44;100.00
73171;BME280;61381;50.118;19.962;2023-07-08T02:03:17;99073.63;;;10.45;100.00
73171;BME280;61381;50.118;19.962;2023-07-08T02:08:20;99075.22;;;10.35;100.00
73171;BME280;61381;50.118;19.962;2023-07-08T02:13:22;99066.88;;;10.16;100.00
73171;BME280;61381;50.118;19.962;2023-07-08T02:18:23;99076.78;;;10.21;100.00
73171;BME280;61381;50.118;19.962;2023-07-08T02:23:26;99070.88;;;10.04;100.00
73171;BME280;61381;50.118;19.962;2023-07-08T02:28:27;99066.88;;;10.06;100.00
73171;BME280;61381;50.118;19.962;2023-07-08T02:33:28;99072.22;;;10.01;100.00
73171;BME280;61381;50.118;19.962;2023-07-08T02:38:30;99071.44;;;9.95;100.00
73171;BME280;61381;50.118;19.962;2023-07-08T02:43:31;99079.19;;;9.97;100.00
73171;BME280;61381;50.118;19.962;2023-07-08T02:48:32;99084.56;;;10.17;100.00
73171;BME280;61381;50.118;19.962;2023-07-08T02:53:34;99080.28;;;10.27;100.00
73171;BME280;61381;50.118;19.962;2023-07-08T02:58:36;99089.91;;;10.17;100.00
73171;BME280;61381;50.118;19.962;2023-07-08T03:03:37;99101.16;;;10.20;100.00
73171;BME280;61381;50.118;19.962;2023-07-08T03:08:39;99097.44;;;10.41;100.00
73171;BME280;61381;50.118;19.962;2023-07-08T03:13:40;99104.41;;;10.47;100.00
73171;BME280;61381;50.118;19.962;2023-07-08T03:18:41;99109.78;;;10.63;100.00
73171;BME280;61381;50.118;19.962;2023-07-08T03:23:43;99117.53;;;10.59;100.00
73171;BME280;61381;50.118;19.962;2023-07-08T03:28:44;99112.72;;;10.56;100.00
73171;BME280;61381;50.118;19.962;2023-07-08T03:33:46;99127.97;;;10.76;100.00
73171;BME280;61381;50.118;19.962;2023-07-08T03:38:48;99113.50;;;10.87;100.00
73171;BME280;61381;50.118;19.962;2023-07-08T03:43:49;99116.91;;;11.19;100.00
73171;BME280;61381;50.118;19.962;2023-07-08T03:48:50;99125.69;;;11.50;100.00
73171;BME280;61381;50.118;19.962;2023-07-08T03:53:53;99125.88;;;13.42;100.00
73171;BME280;61381;50.118;19.962;2023-07-08T03:58:54;99129.78;;;15.43;100.00
73171;BME280;61381;50.118;19.962;2023-07-08T04:03:57;99154.06;;;19.74;96.91
73171;BME280;61381;50.118;19.962;2023-07-08T04:09:00;99164.22;;;22.68;75.40
73171;BME280;61381;50.118;19.962;2023-07-08T04:14:00;99170.28;;;23.85;65.22
73171;BME280;61381;50.118;19.962;2023-07-08T04:19:01;99159.56;;;25.90;55.92
73171;BME280;61381;50.118;19.962;2023-07-08T04:24:04;99162.00;;;26.60;50.97
73171;BME280;61381;50.118;19.962;2023-07-08T04:29:09;99161.00;;;27.13;49.53
73171;BME280;61381;50.118;19.962;2023-07-08T04:34:11;99161.88;;;27.24;48.97
73171;BME280;61381;50.118;19.962;2023-07-08T04:39:13;99167.47;;;27.87;48.03
73171;BME280;61381;50.118;19.962;2023-07-08T04:44:14;99169.13;;;29.01;42.57
73171;BME280;61381;50.118;19.962;2023-07-08T04:49:15;99173.97;;;28.20;45.75
73171;BME280;61381;50.118;19.962;2023-07-08T04:54:18;99174.66;;;29.05;44.76
73171;BME280;61381;50.118;19.962;2023-07-08T04:59:22;99177.41;;;29.77;42.58
73171;BME280;61381;50.118;19.962;2023-07-08T05:04:23;99183.34;;;29.93;42.94
73171;BME280;61381;50.118;19.962;2023-07-08T05:09:26;99181.44;;;30.75;41.82
73171;BME280;61381;50.118;19.962;2023-07-08T05:14:26;99176.81;;;30.57;40.98
73171;BME280;61381;50.118;19.962;2023-07-08T05:19:27;99174.63;;;30.94;40.05
73171;BME280;61381;50.118;19.962;2023-07-08T05:24:30;99163.25;;;29.57;41.84
73171;BME280;61381;50.118;19.962;2023-07-08T05:29:31;99170.69;;;30.91;39.95
73171;BME280;61381;50.118;19.962;2023-07-08T05:34:32;99170.28;;;31.91;37.64
73171;BME280;61381;50.118;19.962;2023-07-08T05:39:34;99171.97;;;32.50;36.45
73171;BME280;61381;50.118;19.962;2023-07-08T05:44:35;99170.13;;;31.18;37.79
73171;BME280;61381;50.118;19.962;2023-07-08T05:49:36;99174.97;;;32.32;36.09
73171;BME280;61381;50.118;19.962;2023-07-08T05:54:40;99167.03;;;32.34;35.99
73171;BME280;61381;50.118;19.962;2023-07-08T05:59:41;99168.41;;;32.49;36.66
73171;BME280;61381;50.118;19.962;2023-07-08T06:04:42;99166.59;;;32.97;34.88
73171;BME280;61381;50.118;19.962;2023-07-08T06:09:45;99181.28;;;31.98;36.12
73171;BME280;61381;50.118;19.962;2023-07-08T06:14:46;99187.84;;;33.58;35.29
73171;BME280;61381;50.118;19.962;2023-07-08T06:19:47;99189.03;;;33.34;36.65
73171;BME280;61381;50.118;19.962;2023-07-08T06:24:49;99194.91;;;33.39;34.69
73171;BME280;61381;50.118;19.962;2023-07-08T06:29:50;99186.38;;;33.50;33.59
73171;BME280;61381;50.118;19.962;2023-07-08T06:34:51;99189.75;;;33.85;32.75
73171;BME280;61381;50.118;19.962;2023-07-08T06:39:54;99184.84;;;32.95;35.37
73171;BME280;61381;50.118;19.962;2023-07-08T06:44:55;99189.34;;;33.63;34.67
73171;BME280;61381;50.118;19.962;2023-07-08T06:49:56;99187.97;;;34.15;31.41
73171;BME280;61381;50.118;19.962;2023-07-08T06:54:58;99186.56;;;34.47;30.92
73171;BME280;61381;50.118;19.962;2023-07-08T06:59:59;99194.22;;;35.32;31.55
73171;BME280;61381;50.118;19.962;2023-07-08T07:05:00;99197.06;;;35.78;29.81
73171;BME280;61381;50.118;19.962;2023-07-08T07:10:03;99186.31;;;34.41;34.08
73171;BME280;61381;50.118;19.962;2023-07-08T07:15:05;99186.63;;;34.23;32.24
73171;BME280;61381;50.118;19.962;2023-07-08T07:20:08;99179.91;;;33.06;31.44
73171;BME280;61381;50.118;19.962;2023-07-08T07:25:10;99184.69;;;33.80;28.80
73171;BME280;61381;50.118;19.962;2023-07-08T07:30:12;99178.88;;;34.35;28.20
73171;BME280;61381;50.118;19.962;2023-07-08T07:35:13;99183.38;;;34.85;26.29
73171;BME280;61381;50.118;19.962;2023-07-08T07:40:16;99177.75;;;35.38;27.75
73171;BME280;61381;50.118;19.962;2023-07-08T07:45:17;99188.84;;;34.89;25.63
73171;BME280;61381;50.118;19.962;2023-07-08T07:50:19;99199.41;;;36.09;23.55
73171;BME280;61381;50.118;19.962;2023-07-08T07:55:21;99189.13;;;35.60;24.13
73171;BME280;61381;50.118;19.962;2023-07-08T08:00:22;99180.34;;;34.19;24.10
73171;BME280;61381;50.118;19.962;2023-07-08T08:05:23;99177.75;;;35.22;24.68
73171;BME280;61381;50.118;19.962;2023-07-08T08:10:25;99172.25;;;34.65;24.67
73171;BME280;61381;50.118;19.962;2023-07-08T08:15:26;99188.56;;;35.98;24.38
73171;BME280;61381;50.118;19.962;2023-07-08T08:20:28;99185.41;;;35.17;22.23
73171;BME280;61381;50.118;19.962;2023-07-08T08:25:31;99190.38;;;34.93;21.84
73171;BME280;61381;50.118;19.962;2023-07-08T08:30:32;99187.13;;;33.98;22.62
73171;BME280;61381;50.118;19.962;2023-07-08T08:35:33;99183.63;;;34.54;24.25
73171;BME280;61381;50.118;19.962;2023-07-08T08:40:39;99178.03;;;31.20;25.92
73171;BME280;61381;50.118;19.962;2023-07-08T08:45:45;99168.13;;;32.71;25.48
73171;BME280;61381;50.118;19.962;2023-07-08T08:50:52;99172.53;;;33.94;23.53
73171;BME280;61381;50.118;19.962;2023-07-08T08:56:03;99165.09;;;34.47;24.08
73171;BME280;61381;50.118;19.962;2023-07-08T09:01:09;99169.03;;;35.52;20.92
73171;BME280;61381;50.118;19.962;2023-07-08T09:06:15;99181.91;;;36.64;21.19
73171;BME280;61381;50.118;19.962;2023-07-08T09:11:26;99181.91;;;36.21;18.67
73171;BME280;61381;50.118;19.962;2023-07-08T09:16:38;99182.91;;;36.15;19.51
73171;BME280;61381;50.118;19.962;2023-07-08T09:21:46;99181.75;;;35.99;20.53
73171;BME280;61381;50.118;19.962;2023-07-08T09:26:52;99181.84;;;35.96;20.72
73171;BME280;61381;50.118;19.962;2023-07-08T09:31:54;99158.28;;;33.68;22.28
73171;BME280;61381;50.118;19.962;2023-07-08T09:36:56;99161.50;;;31.96;23.44
73171;BME280;61381;50.118;19.962;2023-07-08T09:42:06;99156.72;;;32.00;26.17
73171;BME280;61381;50.118;19.962;2023-07-08T09:47:20;99143.94;;;29.46;27.56
73171;BME280;61381;50.118;19.962;2023-07-08T09:52:22;99143.09;;;28.73;29.15
73171;BME280;61381;50.118;19.962;2023-07-08T09:57:28;99131.00;;;28.04;30.75
73171;BME280;61381;50.118;19.962;2023-07-08T10:02:31;99129.66;;;28.64;29.29
73171;BME280;61381;50.118;19.962;2023-07-08T10:07:32;99127.59;;;28.40;30.24
73171;BME280;61381;50.118;19.962;2023-07-08T10:12:37;99132.88;;;29.10;28.41
73171;BME280;61381;50.118;19.962;2023-07-08T10:17:40;99129.09;;;28.19;30.36
73171;BME280;61381;50.118;19.962;2023-07-08T10:22:48;99128.00;;;27.65;31.75
73171;BME280;61381;50.118;19.962;2023-07-08T10:27:57;99125.69;;;27.18;33.55
73171;BME280;61381;50.118;19.962;2023-07-08T10:33:14;99119.78;;;26.75;32.44
73171;BME280;61381;50.118;19.962;2023-07-08T10:38:29;99119.28;;;27.07;31.76
73171;BME280;61381;50.118;19.962;2023-07-08T10:43:47;99115.09;;;27.24;31.77
73171;BME280;61381;50.118;19.962;2023-07-08T10:54:42;99104.06;;;27.72;30.36
73171;BME280;61381;50.118;19.962;2023-07-08T10:59:58;99094.94;;;28.53;28.51
73171;BME280;61381;50.118;19.962;2023-07-08T11:05:11;99095.03;;;29.35;28.86
73171;BME280;61381;50.118;19.962;2023-07-08T11:10:18;99086.34;;;28.69;28.86
73171;BME280;61381;50.118;19.962;2023-07-08T11:15:27;99084.78;;;28.75;28.81
73171;BME280;61381;50.118;19.962;2023-07-08T11:20:36;99071.63;;;27.44;31.19
73171;BME280;61381;50.118;19.962;2023-07-08T11:25:40;99073.78;;;27.72;32.38
73171;BME280;61381;50.118;19.962;2023-07-08T11:30:46;99061.44;;;27.48;34.37
73171;BME280;61381;50.118;19.962;2023-07-08T11:35:50;99071.22;;;27.42;32.05
73171;BME280;61381;50.118;19.962;2023-07-08T11:40:56;99063.81;;;27.50;30.94
73171;BME280;61381;50.118;19.962;2023-07-08T11:46:03;99057.63;;;27.71;30.39
73171;BME280;61381;50.118;19.962;2023-07-08T11:51:05;99051.97;;;28.37;30.76
73171;BME280;61381;50.118;19.962;2023-07-08T11:56:20;99047.09;;;27.94;29.98
73171;BME280;61381;50.118;19.962;2023-07-08T12:01:26;99055.97;;;29.37;30.50
73171;BME280;61381;50.118;19.962;2023-07-08T12:06:46;99044.59;;;28.81;30.87
73171;BME280;61381;50.118;19.962;2023-07-08T12:11:47;99048.44;;;29.66;29.91
73171;BME280;61381;50.118;19.962;2023-07-08T12:16:50;99049.94;;;29.89;30.23
73171;BME280;61381;50.118;19.962;2023-07-08T12:21:51;99051.50;;;29.90;25.07
73171;BME280;61381;50.118;19.962;2023-07-08T12:26:52;99048.53;;;28.98;28.57
73171;BME280;61381;50.118;19.962;2023-07-08T12:31:55;99044.56;;;28.88;30.14
73171;BME280;61381;50.118;19.962;2023-07-08T12:36:57;99043.38;;;29.36;28.79
73171;BME280;61381;50.118;19.962;2023-07-08T12:41:58;99033.38;;;29.75;30.69
73171;BME280;61381;50.118;19.962;2023-07-08T12:47:02;99030.81;;;30.20;30.73
73171;BME280;61381;50.118;19.962;2023-07-08T12:52:03;99034.28;;;30.38;29.48
73171;BME280;61381;50.118;19.962;2023-07-08T12:57:05;99024.97;;;30.70;28.81
73171;BME280;61381;50.118;19.962;2023-07-08T13:02:11;99016.75;;;29.96;28.09
73171;BME280;61381;50.118;19.962;2023-07-08T13:07:23;99031.09;;;30.44;26.44
73171;BME280;61381;50.118;19.962;2023-07-08T13:12:25;99013.88;;;30.74;26.64
73171;BME280;61381;50.118;19.962;2023-07-08T13:17:28;99025.38;;;30.05;28.41
73171;BME280;61381;50.118;19.962;2023-07-08T13:22:30;99005.53;;;29.08;32.60
73171;BME280;61381;50.118;19.962;2023-07-08T13:27:31;99001.56;;;29.38;31.34
73171;BME280;61381;50.118;19.962;2023-07-08T13:32:33;99002.31;;;29.42;29.33
73171;BME280;61381;50.118;19.962;2023-07-08T13:37:35;99003.47;;;29.62;28.70
73171;BME280;61381;50.118;19.962;2023-07-08T13:42:36;98991.00;;;28.68;30.92
73171;BME280;61381;50.118;19.962;2023-07-08T13:47:39;98992.56;;;28.72;32.10
73171;BME280;61381;50.118;19.962;2023-07-08T13:52:43;98975.22;;;28.82;35.65
73171;BME280;61381;50.118;19.962;2023-07-08T13:57:44;98972.47;;;28.54;33.80
73171;BME280;61381;50.118;19.962;2023-07-08T14:02:46;98977.19;;;28.71;31.08
73171;BME280;61381;50.118;19.962;2023-07-08T14:07:47;98968.06;;;29.28;30.41
73171;BME280;61381;50.118;19.962;2023-07-08T14:12:48;98981.69;;;29.75;29.01
73171;BME280;61381;50.118;19.962;2023-07-08T14:17:51;98975.19;;;30.11;30.76
73171;BME280;61381;50.118;19.962;2023-07-08T14:22:52;98982.34;;;30.64;27.94
73171;BME280;61381;50.118;19.962;2023-07-08T14:27:53;98971.47;;;30.88;31.14
73171;BME280;61381;50.118;19.962;2023-07-08T14:32:55;98976.75;;;30.19;28.65
73171;BME280;61381;50.118;19.962;2023-07-08T14:37:56;98964.22;;;30.00;29.23
73171;BME280;61381;50.118;19.962;2023-07-08T14:42:59;98960.22;;;30.64;31.69
73171;BME280;61381;50.118;19.962;2023-07-08T14:48:06;98958.34;;;29.91;29.36
73171;BME280;61381;50.118;19.962;2023-07-08T14:53:08;98958.22;;;30.12;29.13
73171;BME280;61381;50.118;19.962;2023-07-08T14:58:17;98945.84;;;30.80;29.05
73171;BME280;61381;50.118;19.962;2023-07-08T15:03:23;98945.47;;;29.55;31.17
73171;BME280;61381;50.118;19.962;2023-07-08T15:08:25;98949.06;;;29.45;31.00
73171;BME280;61381;50.118;19.962;2023-07-08T15:13:29;98934.25;;;28.41;35.09
73171;BME280;61381;50.118;19.962;2023-07-08T15:18:33;98936.50;;;29.29;32.25
73171;BME280;61381;50.118;19.962;2023-07-08T15:23:33;98934.63;;;28.83;32.46
73171;BME280;61381;50.118;19.962;2023-07-08T15:28:40;98930.16;;;29.40;32.67
73171;BME280;61381;50.118;19.962;2023-07-08T15:33:44;98919.72;;;29.76;35.25
73171;BME280;61381;50.118;19.962;2023-07-08T15:38:45;98918.50;;;28.81;33.54
73171;BME280;61381;50.118;19.962;2023-07-08T15:43:46;98929.13;;;28.18;35.25
73171;BME280;61381;50.118;19.962;2023-07-08T15:48:48;98922.06;;;28.53;34.28
73171;BME280;61381;50.118;19.962;2023-07-08T15:53:49;98922.47;;;28.62;35.93
73171;BME280;61381;50.118;19.962;2023-07-08T15:58:50;98920.47;;;28.31;33.75
73171;BME280;61381;50.118;19.962;2023-07-08T16:03:53;98916.50;;;27.99;36.29
73171;BME280;61381;50.118;19.962;2023-07-08T16:08:54;98919.28;;;28.06;36.96
73171;BME280;61381;50.118;19.962;2023-07-08T16:13:55;98911.41;;;28.44;37.00
73171;BME280;61381;50.118;19.962;2023-07-08T16:18:57;98916.53;;;28.03;37.70
73171;BME280;61381;50.118;19.962;2023-07-08T16:23:58;98917.72;;;28.38;36.63
73171;BME280;61381;50.118;19.962;2023-07-08T16:28:59;98914.56;;;28.10;36.82
73171;BME280;61381;50.118;19.962;2023-07-08T16:34:02;98907.47;;;27.99;35.75
73171;BME280;61381;50.118;19.962;2023-07-08T16:39:03;98913.38;;;28.08;36.92
73171;BME280;61381;50.118;19.962;2023-07-08T16:44:12;98914.16;;;28.12;36.48
73171;BME280;61381;50.118;19.962;2023-07-08T16:49:14;98905.09;;;27.97;39.01
73171;BME280;61381;50.118;19.962;2023-07-08T16:54:17;98903.75;;;27.44;39.22
73171;BME280;61381;50.118;19.962;2023-07-08T16:59:18;98893.94;;;27.43;38.65
73171;BME280;61381;50.118;19.962;2023-07-08T17:04:21;98888.03;;;27.45;38.73
73171;BME280;61381;50.118;19.962;2023-07-08T17:09:22;98894.22;;;27.23;38.30
73171;BME280;61381;50.118;19.962;2023-07-08T17:14:23;98884.34;;;27.12;39.10
73171;BME280;61381;50.118;19.962;2023-07-08T17:19:25;98894.84;;;26.95;42.01
73171;BME280;61381;50.118;19.962;2023-07-08T17:24:26;98884.13;;;26.72;42.12
73171;BME280;61381;50.118;19.962;2023-07-08T17:29:27;98885.66;;;26.66;41.34
73171;BME280;61381;50.118;19.962;2023-07-08T17:34:29;98879.00;;;26.70;42.29
73171;BME280;61381;50.118;19.962;2023-07-08T17:39:31;98879.44;;;26.76;43.92
73171;BME280;61381;50.118;19.962;2023-07-08T17:44:32;98881.69;;;26.63;42.75
73171;BME280;61381;50.118;19.962;2023-07-08T17:49:34;98881.56;;;26.42;43.63
73171;BME280;61381;50.118;19.962;2023-07-08T17:54:35;98878.66;;;26.24;44.95
73171;BME280;61381;50.118;19.962;2023-07-08T17:59:36;98878.09;;;26.04;45.93
73171;BME280;61381;50.118;19.962;2023-07-08T18:04:39;98887.28;;;25.85;45.92
73171;BME280;61381;50.118;19.962;2023-07-08T18:09:40;98895.00;;;25.68;49.51
73171;BME280;61381;50.118;19.962;2023-07-08T18:14:41;98874.97;;;25.30;56.15
73171;BME280;61381;50.118;19.962;2023-07-08T18:19:44;98885.44;;;24.94;58.75
73171;BME280;61381;50.118;19.962;2023-07-08T18:24:45;98874.44;;;24.40;61.96
73171;BME280;61381;50.118;19.962;2023-07-08T18:29:49;98867.88;;;23.95;66.86
73171;BME280;61381;50.118;19.962;2023-07-08T18:34:51;98867.97;;;23.60;67.97
73171;BME280;61381;50.118;19.962;2023-07-08T18:39:52;98866.56;;;23.27;68.26
73171;BME280;61381;50.118;19.962;2023-07-08T18:44:53;98871.00;;;22.80;67.65
73171;BME280;61381;50.118;19.962;2023-07-08T18:49:56;98870.91;;;22.41;73.14
73171;BME280;61381;50.118;19.962;2023-07-08T18:54:57;98876.50;;;22.00;76.09
73171;BME280;61381;50.118;19.962;2023-07-08T18:59:58;98876.59;;;21.72;81.78
73171;BME280;61381;50.118;19.962;2023-07-08T19:05:00;98879.97;;;21.41;83.36
73171;BME280;61381;50.118;19.962;2023-07-08T19:10:01;98892.81;;;20.99;83.28
73171;BME280;61381;50.118;19.962;2023-07-08T19:15:02;98887.88;;;20.77;84.01
73171;BME280;61381;50.118;19.962;2023-07-08T19:20:07;98886.03;;;20.56;88.29
73171;BME280;61381;50.118;19.962;2023-07-08T19:25:15;98889.44;;;20.16;91.68
73171;BME280;61381;50.118;19.962;2023-07-08T19:30:17;98884.03;;;19.61;89.70
73171;BME280;61381;50.118;19.962;2023-07-08T19:35:21;98883.88;;;19.46;91.69
73171;BME280;61381;50.118;19.962;2023-07-08T19:40:24;98879.84;;;19.31;96.28
73171;BME280;61381;50.118;19.962;2023-07-08T19:45:27;98880.28;;;18.99;97.80
73171;BME280;61381;50.118;19.962;2023-07-08T19:50:30;98878.78;;;18.81;98.14
73171;BME280;61381;50.118;19.962;2023-07-08T19:55:31;98880.69;;;18.50;98.44
73171;BME280;61381;50.118;19.962;2023-07-08T20:00:37;98875.78;;;18.44;99.89
73171;BME280;61381;50.118;19.962;2023-07-08T20:05:40;98874.56;;;18.24;100.00
73171;BME280;61381;50.118;19.962;2023-07-08T20:10:41;98872.81;;;17.89;100.00
73171;BME280;61381;50.118;19.962;2023-07-08T20:15:43;98875.22;;;17.64;100.00
73171;BME280;61381;50.118;19.962;2023-07-08T20:20:45;98878.38;;;17.75;100.00
73171;BME280;61381;50.118;19.962;2023-07-08T20:25:46;98882.06;;;17.62;100.00
73171;BME280;61381;50.118;19.962;2023-07-08T20:30:49;98883.53;;;17.51;100.00
73171;BME280;61381;50.118;19.962;2023-07-08T20:35:52;98888.47;;;17.22;100.00
73171;BME280;61381;50.118;19.962;2023-07-08T20:40:53;98891.31;;;17.08;100.00
73171;BME280;61381;50.118;19.962;2023-07-08T20:45:54;98894.34;;;17.07;100.00
73171;BME280;61381;50.118;19.962;2023-07-08T20:50:58;98892.09;;;16.91;100.00
73171;BME280;61381;50.118;19.962;2023-07-08T20:55:59;98885.38;;;16.80;100.00
73171;BME280;61381;50.118;19.962;2023-07-08T21:01:00;98892.88;;;16.92;100.00
73171;BME280;61381;50.118;19.962;2023-07-08T21:06:03;98892.25;;;16.95;100.00
73171;BME280;61381;50.118;19.962;2023-07-08T21:11:06;98891.31;;;17.00;100.00
73171;BME280;61381;50.118;19.962;2023-07-08T21:16:11;98895.13;;;16.90;100.00
73171;BME280;61381;50.118;19.962;2023-07-08T21:21:16;98898.56;;;16.73;100.00
73171;BME280;61381;50.118;19.962;2023-07-08T21:26:21;98899.47;;;16.51;100.00
73171;BME280;61381;50.118;19.962;2023-07-08T21:31:23;98906.56;;;16.38;100.00
73171;BME280;61381;50.118;19.962;2023-07-08T21:36:27;98903.50;;;16.31;100.00
73171;BME280;61381;50.118;19.962;2023-07-08T21:41:30;98903.81;;;16.29;100.00
73171;BME280;61381;50.118;19.962;2023-07-08T21:46:31;98906.50;;;16.20;100.00
73171;BME280;61381;50.118;19.962;2023-07-08T21:51:34;98905.06;;;16.14;100.00
73171;BME280;61381;50.118;19.962;2023-07-08T21:56:35;98901.81;;;16.03;100.00
73171;BME280;61381;50.118;19.962;2023-07-08T22:01:36;98901.28;;;15.93;100.00
73171;BME280;61381;50.118;19.962;2023-07-08T22:06:39;98896.28;;;15.63;100.00
73171;BME280;61381;50.118;19.962;2023-07-08T22:11:41;98895.38;;;15.45;100.00
73171;BME280;61381;50.118;19.962;2023-07-08T22:16:42;98889.22;;;15.31;100.00
73171;BME280;61381;50.118;19.962;2023-07-08T22:21:44;98891.56;;;15.24;100.00
73171;BME280;61381;50.118;19.962;2023-07-08T22:26:45;98888.47;;;15.16;100.00
73171;BME280;61381;50.118;19.962;2023-07-08T22:31:46;98889.09;;;15.13;100.00
73171;BME280;61381;50.118;19.962;2023-07-08T22:36:49;98890.09;;;15.18;100.00
73171;BME280;61381;50.118;19.962;2023-07-08T22:41:52;98898.75;;;15.28;100.00
73171;BME280;61381;50.118;19.962;2023-07-08T22:46:54;98896.72;;;15.57;100.00
73171;BME280;61381;50.118;19.962;2023-07-08T22:51:57;98900.50;;;15.56;100.00
73171;BME280;61381;50.118;19.962;2023-07-08T22:56:58;98897.16;;;15.50;100.00
73171;BME280;61381;50.118;19.962;2023-07-08T23:02:00;98893.88;;;15.16;100.00
73171;BME280;61381;50.118;19.962;2023-07-08T23:07:02;98890.94;;;14.90;100.00
73171;BME280;61381;50.118;19.962;2023-07-08T23:12:05;98882.88;;;14.62;100.00
73171;BME280;61381;50.118;19.962;2023-07-08T23:17:09;98885.25;;;14.36;100.00
73171;BME280;61381;50.118;19.962;2023-07-08T23:22:20;98880.56;;;14.28;100.00
73171;BME280;61381;50.118;19.962;2023-07-08T23:27:22;98881.84;;;14.17;100.00
73171;BME280;61381;50.118;19.962;2023-07-08T23:32:23;98875.34;;;14.04;100.00
73171;BME280;61381;50.118;19.962;2023-07-08T23:37:26;98882.75;;;14.12;100.00
73171;BME280;61381;50.118;19.962;2023-07-08T23:42:28;98887.13;;;14.08;100.00
73171;BME280;61381;50.118;19.962;2023-07-08T23:47:29;98888.13;;;13.98;100.00
73171;BME280;61381;50.118;19.962;2023-07-08T23:52:31;98891.19;;;13.91;100.00
73171;BME280;61381;50.118;19.962;2023-07-08T23:57:32;98885.31;;;13.89;100.00
